Spearman, TX

4:49 PM CDT on August 24, 2016 (GMT -0500)
Pampa / Mesa Vista

Weather History for KBPC - November, 2013

Change the Weather History Date:

Saturday, November 2, 2013

  Actual Average (KBGD) Record (KBGD)
Temperature  
Mean Temperature 50 °F 54 °F  
Max Temperature 68 °F 67 °F 86 °F (2005)
Min Temperature 32 °F 41 °F 12 °F (1951)
Degree Days  
Heating Degree Days 15 11  
Month to date heating degree days 22  
Since 1 July heating degree days 243  
Cooling Degree Days 0 0  
Month to date cooling degree days 0  
Year to date cooling degree days 1835  
Moisture  
Dew Point 26 °F    
Average Humidity 49    
Maximum Humidity 81    
Minimum Humidity 20    
Precipitation  
Precipitation 0.00 in 0.04 in 0.47 in (1968)
Month to date precipitation 0.08  
Year to date precipitation 20.19  
Snow  
Snow 0.00 in - 2.00 in (2004)
Month to date snowfall  
Since 1 July snowfall  
Since 1 September snowfall  
Snow Depth -    
Sea Level Pressure  
Sea Level Pressure 30.22 in    
Wind  
Wind Speed 8 mph (SW)    
Max Wind Speed 23 mph    
Max Gust Speed 31 mph    
Visibility 10 miles    
Events      
T = Trace of Precipitation, MM = Missing Value Source: NWS Daily Summary

Daily Weather History Graph

Daily Weather History Graph

Search for Another Location

Airport or City:

Trip Planner

Search our weather history database for the weather conditions in past years. The results will help you decide how hot, cold, wet, or windy it might be!

Date:

Astronomy

Nov. 02, 2013 Rise Set
Actual Time 8:07 AM CDT 6:47 PM CDT
Civil Twilight 7:41 AM CDT 7:13 PM CDT
Nautical Twilight 7:10 AM CDT 7:43 PM CDT
Astronomical Twilight 6:40 AM CDT 8:13 PM CDT
Moon 7:08 AM CDT (11/2) 6:19 PM CDT (11/2)
Length of Visible Light 11h 32m
Length of Day
10h 39m
Waning Crescent, 1% of the Moon is Illuminated
Nov 2
Waning Crescent
Nov 3
New
Nov 9
First Quarter
Nov 17
Full
Nov 25
Last Quarter

Hourly Weather History & Observations

Time (CDT) Temp. Windchill Dew Point Humidity Pressure Visibility Wind Dir Wind Speed Gust Speed Precip Events Conditions
12:15 AM 37.4 °F - 26.6 °F 65% 30.24 in 10.0 mi Calm Calm - N/A   Clear
12:35 AM 35.6 °F 31.7 °F 26.6 °F 70% 30.24 in 10.0 mi NW 4.6 mph - N/A   Clear
12:55 AM 37.4 °F 34.9 °F 26.6 °F 65% 30.24 in 10.0 mi West 3.5 mph - N/A   Clear
1:15 AM 37.4 °F 33.8 °F 26.6 °F 65% 30.25 in 10.0 mi West 4.6 mph - N/A   Clear
1:35 AM 33.8 °F 26.4 °F 24.8 °F 70% 30.25 in 10.0 mi SW 9.2 mph - N/A   Clear
1:55 AM 35.6 °F 29.9 °F 26.6 °F 70% 30.25 in 10.0 mi SW 6.9 mph - N/A   Clear
2:15 AM 33.8 °F 27.0 °F 26.6 °F 75% 30.25 in 10.0 mi WSW 8.1 mph - N/A   Clear
2:35 AM 35.6 °F 29.2 °F 26.6 °F 70% 30.26 in 10.0 mi SW 8.1 mph - N/A   Clear
2:55 AM 35.6 °F 29.2 °F 26.6 °F 70% 30.26 in 10.0 mi WSW 8.1 mph - N/A   Clear
3:15 AM 35.6 °F 28.6 °F 26.6 °F 70% 30.27 in 10.0 mi SW 9.2 mph - N/A   Clear
3:35 AM 35.6 °F 29.2 °F 26.6 °F 70% 30.27 in 10.0 mi SW 8.1 mph - N/A   Clear
3:55 AM 33.8 °F 27.7 °F 26.6 °F 75% 30.27 in 10.0 mi WSW 6.9 mph - N/A   Clear
4:15 AM 33.8 °F 28.6 °F 26.6 °F 75% 30.27 in 10.0 mi WSW 5.8 mph - N/A   Clear
4:35 AM 33.8 °F 27.7 °F 26.6 °F 75% 30.28 in 10.0 mi SW 6.9 mph - N/A   Clear
4:55 AM 32.0 °F 26.4 °F 26.6 °F 80% 30.28 in 10.0 mi SW 5.8 mph - N/A   Clear
5:15 AM 32.0 °F 24.2 °F 26.6 °F 80% 30.28 in 10.0 mi SW 9.2 mph - N/A   Clear
5:35 AM 33.8 °F 26.4 °F 28.4 °F 81% 30.29 in 10.0 mi SW 9.2 mph - N/A   Clear
5:55 AM 33.8 °F 25.8 °F 26.6 °F 75% 30.29 in 10.0 mi SW 10.4 mph - N/A   Clear
6:15 AM 33.8 °F 28.6 °F 26.6 °F 75% 30.29 in 10.0 mi SW 5.8 mph - N/A   Clear
6:35 AM 32.0 °F 24.8 °F 26.6 °F 80% 30.30 in 10.0 mi WSW 8.1 mph - N/A   Clear
6:55 AM 32.0 °F 24.8 °F 26.6 °F 80% 30.31 in 10.0 mi SW 8.1 mph - N/A   Clear
7:15 AM 32.0 °F 24.8 °F 26.6 °F 80% 30.31 in 10.0 mi SW 8.1 mph - N/A   Clear
7:35 AM 32.0 °F 24.2 °F 26.6 °F 80% 30.31 in 10.0 mi SW 9.2 mph - N/A   Clear
7:55 AM 32.0 °F 25.6 °F 26.6 °F 80% 30.31 in 10.0 mi SW 6.9 mph - N/A   Clear
8:15 AM 32.0 °F 26.4 °F 26.6 °F 80% 30.32 in 10.0 mi SW 5.8 mph - N/A   Clear
8:35 AM 32.0 °F 25.6 °F 26.6 °F 80% 30.32 in 10.0 mi SW 6.9 mph - N/A   Clear
8:55 AM 33.8 °F 29.6 °F 28.4 °F 81% 30.33 in 10.0 mi SW 4.6 mph - N/A   Clear
9:15 AM 37.4 °F 32.8 °F 28.4 °F 70% 30.33 in 10.0 mi SW 5.8 mph - N/A   Clear
9:35 AM 39.2 °F 34.2 °F 28.4 °F 65% 30.35 in 10.0 mi WSW 6.9 mph - N/A   Clear
9:55 AM 41.0 °F 35.8 °F 28.4 °F 61% 30.36 in 10.0 mi WSW 8.1 mph - N/A   Clear
10:15 AM 42.8 °F 40.1 °F 28.4 °F 57% 30.36 in 10.0 mi SW 4.6 mph - N/A   Clear
10:35 AM 44.6 °F 42.2 °F 28.4 °F 53% 30.36 in 10.0 mi WSW 4.6 mph - N/A   Clear
10:55 AM 46.4 °F 45.2 °F 28.4 °F 50% 30.36 in 10.0 mi WSW 3.5 mph - N/A   Clear
12:35 PM 57.2 °F - 26.6 °F 31% 30.32 in 10.0 mi SSW 4.6 mph - N/A   Clear
12:55 PM 59.0 °F - 26.6 °F 29% 30.31 in 10.0 mi SSW 9.2 mph - N/A   Clear
1:15 PM 60.8 °F - 26.6 °F 27% 30.30 in 10.0 mi WSW 8.1 mph - N/A   Clear
1:35 PM 62.6 °F - 26.6 °F 26% 30.28 in 10.0 mi SSW 11.5 mph - N/A   Clear
1:55 PM 62.6 °F - 26.6 °F 26% 30.26 in 10.0 mi SW 13.8 mph 24.2 mph N/A   Clear
2:15 PM 64.4 °F - 26.6 °F 24% 30.24 in 10.0 mi SSW 12.7 mph 19.6 mph N/A   Clear
2:35 PM 66.2 °F - 26.6 °F 23% 30.22 in 10.0 mi WSW 11.5 mph 21.9 mph N/A   Clear
2:55 PM 64.4 °F - 26.6 °F 24% 30.21 in 10.0 mi WSW 8.1 mph - N/A   Clear
3:15 PM 68.0 °F - 24.8 °F 20% 30.19 in 10.0 mi SSW 12.7 mph 19.6 mph N/A   Clear
3:35 PM 68.0 °F - 24.8 °F 20% 30.18 in 10.0 mi SW 15.0 mph 19.6 mph N/A   Clear
3:55 PM 68.0 °F - 24.8 °F 20% 30.17 in 10.0 mi SSW 16.1 mph 21.9 mph N/A   Clear
4:15 PM 68.0 °F - 26.6 °F 21% 30.16 in 10.0 mi SSW 11.5 mph 23.0 mph N/A   Clear
4:35 PM 68.0 °F - 24.8 °F 20% 30.15 in 10.0 mi SW 12.7 mph 21.9 mph N/A   Clear
4:55 PM 68.0 °F - 24.8 °F 20% 30.14 in 10.0 mi SSW 18.4 mph 23.0 mph N/A   Clear
5:15 PM 68.0 °F - 24.8 °F 20% 30.13 in 10.0 mi SW 15.0 mph 20.7 mph N/A   Clear
5:35 PM 68.0 °F - 24.8 °F 20% 30.12 in 10.0 mi SSW 15.0 mph 20.7 mph N/A   Clear
5:55 PM 68.0 °F - 24.8 °F 20% 30.12 in 10.0 mi SSW 17.3 mph 23.0 mph N/A   Clear
6:15 PM 66.2 °F - 26.6 °F 23% 30.11 in 10.0 mi SSW 15.0 mph 20.7 mph N/A   Clear
6:35 PM 64.4 °F - 26.6 °F 24% 30.11 in 10.0 mi South 12.7 mph 19.6 mph N/A   Clear
6:55 PM 60.8 °F - 26.6 °F 27% 30.10 in 10.0 mi South 11.5 mph - N/A   Clear
7:15 PM 59.0 °F - 26.6 °F 29% 30.10 in 10.0 mi South 10.4 mph - N/A   Clear
7:35 PM 57.2 °F - 26.6 °F 31% 30.10 in 10.0 mi SSE 13.8 mph - N/A   Clear
7:55 PM 55.4 °F - 26.6 °F 33% 30.10 in 10.0 mi SSE 16.1 mph 20.7 mph N/A   Clear
8:15 PM 55.4 °F - 26.6 °F 33% 30.10 in 10.0 mi SSE 17.3 mph 23.0 mph N/A   Clear
8:35 PM 55.4 °F - 26.6 °F 33% 30.09 in 10.0 mi SSE 19.6 mph 26.5 mph N/A   Clear
8:55 PM 53.6 °F - 26.6 °F 35% 30.09 in 10.0 mi SSE 18.4 mph - N/A   Clear
9:15 PM 53.6 °F - 26.6 °F 35% 30.09 in 10.0 mi SSE 19.6 mph 25.3 mph N/A   Clear
9:35 PM 53.6 °F - 26.6 °F 35% 30.09 in 10.0 mi SSE 20.7 mph 28.8 mph N/A   Clear
9:55 PM 51.8 °F - 24.8 °F 35% 30.09 in 10.0 mi SSE 18.4 mph 25.3 mph N/A   Clear
10:15 PM 53.6 °F - 24.8 °F 33% 30.08 in 10.0 mi SSE 23.0 mph 31.1 mph N/A   Clear
10:35 PM 51.8 °F - 24.8 °F 35% 30.08 in 10.0 mi SSE 16.1 mph 27.6 mph N/A   Clear
10:55 PM 51.8 °F - 26.6 °F 38% 30.07 in 10.0 mi South 20.7 mph 27.6 mph N/A   Clear
11:15 PM 51.8 °F - 26.6 °F 38% 30.06 in 10.0 mi South 18.4 mph 21.9 mph N/A   Clear
11:35 PM 51.8 °F - 26.6 °F 38% 30.06 in 10.0 mi South 17.3 mph 23.0 mph N/A   Clear
11:55 PM 50.0 °F - 26.6 °F 40% 30.05 in 10.0 mi South 18.4 mph 27.6 mph N/A   Clear